Time;durP1;ratioP1;P1;durP2;ratioP2;P2;SDS_P1;SDS_P2;PMS_P1;PMS_P2;Temp;Humidity;BMP_temperature;BMP_pressure;BME280_temperature;BME280_humidity;BME280_pressure;Samples;Min_cycle;Max_cycle;Signal;HPM_P1;HPM_P2
2023/05/08 00:00:58;;;;;;;1999.90;999.90;;;14.70;99.90;;;;;;5054176;28;20092;-73
2023/05/08 00:03:24;;;;;;;1999.90;999.90;;;14.70;99.90;;;;;;5055395;28;20025;-73
2023/05/08 00:05:49;;;;;;;1999.90;999.90;;;14.70;99.90;;;;;;5055399;28;20398;-79
2023/05/08 00:08:15;;;;;;;1999.90;999.90;;;14.70;99.90;;;;;;5055382;28;20388;-80
2023/05/08 00:10:40;;;;;;;1999.90;999.90;;;14.70;99.90;;;;;;5054721;28;20476;-72
2023/05/08 00:13:06;;;;;;;1999.90;999.90;;;14.70;99.90;;;;;;5055092;28;20035;-73
2023/05/08 00:15:32;;;;;;;1999.90;999.90;;;14.80;99.90;;;;;;5040017;28;20025;-73
2023/05/08 00:17:58;;;;;;;1999.90;999.90;;;14.70;99.90;;;;;;5035325;28;20057;-80
2023/05/08 00:20:23;;;;;;;1999.90;999.90;;;14.80;99.90;;;;;;5034685;28;20037;-79
2023/05/08 00:22:49;;;;;;;1999.90;999.90;;;14.80;99.90;;;;;;5034857;28;20053;-80
2023/05/08 00:25:15;;;;;;;1999.90;999.90;;;14.80;99.90;;;;;;5033898;28;20116;-73
2023/05/08 00:27:40;;;;;;;1999.90;999.90;;;14.80;99.90;;;;;;5035105;28;20036;-73
2023/05/08 00:30:07;;;;;;;1999.90;999.90;;;14.80;99.90;;;;;;5034809;28;20030;-80
2023/05/08 00:32:35;;;;;;;1999.90;999.90;;;14.80;99.90;;;;;;5034276;28;20021;-80
2023/05/08 00:35:01;;;;;;;1999.90;999.90;;;14.80;99.90;;;;;;5034343;28;20560;-73
2023/05/08 00:37:27;;;;;;;1999.90;999.90;;;14.80;99.90;;;;;;5034871;28;20401;-80
2023/05/08 00:39:53;;;;;;;1999.90;999.90;;;14.80;99.90;;;;;;5034777;28;20032;-73
2023/05/08 00:42:18;;;;;;;1999.90;999.90;;;14.80;99.90;;;;;;5034363;28;20108;-73
2023/05/08 00:44:44;;;;;;;1999.90;999.90;;;14.80;99.90;;;;;;5041235;28;20027;-79
2023/05/08 00:47:10;;;;;;;1999.90;999.90;;;14.80;99.90;;;;;;5054126;28;20029;-79
2023/05/08 00:49:36;;;;;;;1999.90;999.90;;;14.80;99.90;;;;;;5054080;28;20033;-73
2023/05/08 00:52:03;;;;;;;1999.90;999.90;;;14.80;99.90;;;;;;5054381;28;20048;-73
2023/05/08 00:54:30;;;;;;;1999.90;999.90;;;14.80;99.90;;;;;;5054325;28;20067;-73
2023/05/08 00:56:55;;;;;;;1999.90;999.90;;;14.80;99.90;;;;;;5054059;28;20082;-73
2023/05/08 00:59:22;;;;;;;1999.90;999.90;;;14.80;99.90;;;;;;5054238;28;20037;-73
2023/05/08 01:01:48;;;;;;;1999.90;999.90;;;14.80;99.90;;;;;;5053441;28;20025;-73
2023/05/08 01:04:14;;;;;;;1999.90;999.90;;;14.80;99.90;;;;;;5054076;28;20064;-73
2023/05/08 01:06:40;;;;;;;1999.90;999.90;;;14.80;99.90;;;;;;5054182;28;20090;-73
2023/05/08 01:09:06;;;;;;;1999.90;999.90;;;14.70;99.90;;;;;;5053727;28;20033;-79
2023/05/08 01:11:50;;;;;;;1999.90;999.90;;;14.80;99.90;;;;;;5053681;28;20071;-79
2023/05/08 01:14:21;;;;;;;1999.90;999.90;;;14.70;99.90;;;;;;5049356;28;20039;-80
2023/05/08 01:16:53;;;;;;;1999.90;999.90;;;14.70;99.90;;;;;;5033956;28;20116;-73
2023/05/08 01:19:49;;;;;;;1999.90;999.90;;;14.70;99.90;;;;;;5033106;28;20032;-73
2023/05/08 01:22:42;;;;;;;1999.90;999.90;;;14.70;99.90;;;;;;5033650;28;20029;-80
2023/05/08 01:25:56;;;;;;;1999.90;999.90;;;14.70;99.90;;;;;;5033510;28;20108;-73
2023/05/08 01:29:00;;;;;;;1999.90;999.90;;;14.70;99.90;;;;;;5033972;28;20389;-80
2023/05/08 01:32:03;;;;;;;1999.90;999.90;;;14.80;99.90;;;;;;5040658;28;20032;-80
2023/05/08 01:34:33;;;;;;;1999.90;999.90;;;14.70;99.90;;;;;;5053404;28;20060;-80
2023/05/08 01:37:07;;;;;;;1999.90;999.90;;;14.70;99.90;;;;;;5053078;28;20029;-73
2023/05/08 01:39:55;;;;;;;1999.90;999.90;;;14.70;99.90;;;;;;5053293;28;20021;-80
2023/05/08 01:42:48;;;;;;;1999.90;999.90;;;14.70;99.90;;;;;;5041399;28;20028;-73
2023/05/08 01:45:21;;;;;;;1999.90;999.90;;;14.70;99.90;;;;;;5044445;28;20065;-73
2023/05/08 01:47:56;;;;;;;1999.90;999.90;;;14.70;99.90;;;;;;5053212;28;20029;-80
2023/05/08 01:50:32;;;;;;;1999.90;999.90;;;14.70;99.90;;;;;;5033235;28;20077;-80
2023/05/08 01:53:07;;;;;;;1999.90;999.90;;;14.70;99.90;;;;;;5033155;28;20131;-80
2023/05/08 01:55:36;;;;;;;1999.90;999.90;;;14.60;99.90;;;;;;5033416;28;20018;-73
2023/05/08 01:58:08;;;;;;;1999.90;999.90;;;14.60;99.90;;;;;;5033435;28;20487;-73
2023/05/08 02:00:34;;;;;;;1999.90;999.90;;;14.60;99.90;;;;;;5032937;28;20022;-80
2023/05/08 02:03:01;;;;;;;1999.90;999.90;;;14.60;99.90;;;;;;5032066;28;20484;-80
2023/05/08 02:05:27;;;;;;;1999.90;999.90;;;14.60;99.90;;;;;;5032998;28;20029;-80
2023/05/08 02:07:54;;;;;;;1999.90;999.90;;;14.60;99.90;;;;;;5036827;28;20107;-73
2023/05/08 02:10:22;;;;;;;1999.90;999.90;;;14.50;99.90;;;;;;5053051;28;20028;-73
2023/05/08 02:12:49;;;;;;;1999.90;999.90;;;14.50;99.90;;;;;;5052223;28;20025;-80
2023/05/08 02:15:16;;;;;;;1999.90;999.90;;;14.50;99.90;;;;;;5052549;28;20476;-80
2023/05/08 02:17:44;;;;;;;1999.90;999.90;;;14.40;99.90;;;;;;5052825;28;20037;-73
2023/05/08 02:20:13;;;;;;;1999.90;999.90;;;14.40;99.90;;;;;;5052803;28;20025;-79
2023/05/08 02:22:47;;;;;;;1999.90;999.90;;;14.40;99.90;;;;;;5052939;28;20056;-73
2023/05/08 02:25:15;;;;;;;1999.90;999.90;;;14.40;99.90;;;;;;5052687;28;20021;-73
2023/05/08 02:27:46;;;;;;;1999.90;999.90;;;14.40;99.90;;;;;;5052581;28;20495;-80
2023/05/08 02:30:14;;;;;;;1999.90;999.90;;;14.40;99.90;;;;;;5052819;28;20147;-73
2023/05/08 02:32:43;;;;;;;1999.90;999.90;;;14.50;99.90;;;;;;5052823;28;20653;-80
2023/05/08 02:35:14;;;;;;;1999.90;999.90;;;14.50;99.90;;;;;;5052679;28;20025;-73
2023/05/08 02:37:42;;;;;;;1999.90;999.90;;;14.50;99.90;;;;;;5052766;28;20427;-80
2023/05/08 02:40:10;;;;;;;1999.90;999.90;;;14.50;99.90;;;;;;5052586;28;20036;-73
2023/05/08 02:42:36;;;;;;;1999.90;999.90;;;14.50;99.90;;;;;;5039847;28;20519;-76
2023/05/08 02:45:03;;;;;;;1999.90;999.90;;;14.50;99.90;;;;;;5052554;28;20033;-80
2023/05/08 02:47:56;;;;;;;1999.90;999.90;;;14.50;99.90;;;;;;5057746;28;20021;-73
2023/05/08 02:50:44;;;;;;;1999.90;999.90;;;14.50;99.90;;;;;;5036366;28;20032;-73
2023/05/08 02:53:15;;;;;;;1999.90;999.90;;;14.50;99.90;;;;;;5036299;28;20513;-80
2023/05/08 02:56:00;;;;;;;1999.90;999.90;;;14.50;99.90;;;;;;5036769;28;20108;-80
2023/05/08 02:58:38;;;;;;;1999.90;999.90;;;14.50;99.90;;;;;;5036632;28;20365;-80
2023/05/08 03:01:24;;;;;;;1999.90;999.90;;;14.50;99.90;;;;;;5036106;28;20037;-73
2023/05/08 03:04:02;;;;;;;1999.90;999.90;;;14.40;99.90;;;;;;5035521;28;20033;-80
2023/05/08 03:06:35;;;;;;;1999.90;999.90;;;14.40;99.90;;;;;;5036479;28;20369;-79
2023/05/08 03:09:03;;;;;;;1999.90;999.90;;;14.40;99.90;;;;;;5049251;28;20060;-80
2023/05/08 03:11:37;;;;;;;1999.90;999.90;;;14.30;99.90;;;;;;5056310;28;20442;-73
2023/05/08 03:14:05;;;;;;;1999.90;999.90;;;14.40;99.90;;;;;;5056004;28;20029;-73
2023/05/08 03:16:33;;;;;;;1999.90;999.90;;;14.40;99.90;;;;;;5055996;28;20021;-73
2023/05/08 03:19:04;;;;;;;1999.90;999.90;;;14.40;99.90;;;;;;5056191;28;20415;-80
2023/05/08 03:21:31;;;;;;;1999.90;999.90;;;14.40;99.90;;;;;;5056286;28;20075;-80
2023/05/08 03:23:59;;;;;;;1999.90;999.90;;;14.50;99.90;;;;;;5055875;28;20057;-80
2023/05/08 03:26:25;;;;;;;1999.90;999.90;;;14.40;99.90;;;;;;5055752;28;20024;-73
2023/05/08 03:28:53;;;;;;;1999.90;999.90;;;14.40;99.90;;;;;;5055797;28;20395;-73
2023/05/08 03:31:20;;;;;;;1999.90;999.90;;;14.40;99.90;;;;;;5056007;28;20373;-73
2023/05/08 03:33:47;;;;;;;1999.90;999.90;;;14.40;99.90;;;;;;5056121;28;20059;-80
2023/05/08 03:36:14;;;;;;;1999.90;999.90;;;14.40;99.90;;;;;;5055804;28;20025;-79
2023/05/08 03:38:40;;;;;;;1999.90;999.90;;;14.40;99.90;;;;;;5055672;28;20445;-73
2023/05/08 03:41:06;;;;;;;1999.90;999.90;;;14.50;99.90;;;;;;5053857;28;20107;-73
2023/05/08 03:43:32;;;;;;;1999.90;999.90;;;14.50;99.90;;;;;;5035691;28;20033;-73
2023/05/08 03:45:59;;;;;;;1999.90;999.90;;;14.50;99.90;;;;;;5052799;28;20387;-73
2023/05/08 03:48:26;;;;;;;1999.90;999.90;;;14.50;99.90;;;;;;5055250;28;20035;-79
2023/05/08 03:50:52;;;;;;;1999.90;999.90;;;14.50;99.90;;;;;;5055209;28;20017;-80
2023/05/08 03:53:18;;;;;;;1999.90;999.90;;;14.50;99.90;;;;;;5055283;28;20049;-73
2023/05/08 03:55:44;;;;;;;1999.90;999.90;;;14.50;99.90;;;;;;5055516;28;20021;-73
2023/05/08 03:58:28;;;;;;;1999.90;999.90;;;14.50;99.90;;;;;;5055562;28;20048;-80
2023/05/08 04:01:23;;;;;;;1999.90;999.90;;;14.50;99.90;;;;;;5054939;28;20036;-80
2023/05/08 04:04:05;;;;;;;1999.90;999.90;;;14.50;99.90;;;;;;5053732;28;20040;-79
2023/05/08 04:06:44;;;;;;;1999.90;999.90;;;14.50;99.90;;;;;;5054911;28;20025;-73
2023/05/08 04:09:43;;;;;;;1999.90;999.90;;;14.50;99.90;;;;;;5055123;28;20033;-73
2023/05/08 04:12:27;;;;;;;1999.90;999.90;;;14.50;99.90;;;;;;5051644;28;20037;-80
2023/05/08 04:15:14;;;;;;;1999.90;999.90;;;14.50;99.90;;;;;;5045490;28;20027;-80
2023/05/08 04:17:48;;;;;;;1999.90;999.90;;;14.50;99.90;;;;;;5027616;28;20100;-79
2023/05/08 04:20:18;;;;;;;1999.90;999.90;;;14.50;99.90;;;;;;5034038;28;20033;-73
2023/05/08 04:22:44;;;;;;;1999.90;999.90;;;14.50;99.90;;;;;;5035123;28;20048;-73
2023/05/08 04:25:13;;;;;;;1999.90;999.90;;;14.60;99.90;;;;;;5035065;28;20057;-80
2023/05/08 04:27:39;;;;;;;1999.90;999.90;;;14.60;99.90;;;;;;5035046;28;20072;-79
2023/05/08 04:30:06;;;;;;;1999.90;999.90;;;14.50;99.90;;;;;;5034791;28;20030;-80
2023/05/08 04:32:33;;;;;;;1999.90;999.90;;;14.60;99.90;;;;;;5034637;28;20499;-73
2023/05/08 04:34:59;;;;;;;1999.90;999.90;;;14.60;99.90;;;;;;5034740;28;20079;-73
2023/05/08 04:37:27;;;;;;;1999.90;999.90;;;14.60;99.90;;;;;;5034689;28;20473;-73
2023/05/08 04:39:53;;;;;;;1999.90;999.90;;;14.60;99.90;;;;;;5034826;28;20477;-73
2023/05/08 04:42:20;;;;;;;1999.90;999.90;;;14.60;99.90;;;;;;5034282;28;20509;-79
2023/05/08 04:44:46;;;;;;;1999.90;999.90;;;14.60;99.90;;;;;;5041523;28;20068;-73
2023/05/08 04:47:12;;;;;;;1999.90;999.90;;;14.60;99.90;;;;;;5054653;28;20083;-73
2023/05/08 04:49:38;;;;;;;1999.90;999.90;;;14.60;99.90;;;;;;5054053;28;20056;-80
2023/05/08 04:52:05;;;;;;;1999.90;999.90;;;14.70;99.90;;;;;;5054522;28;20073;-80
2023/05/08 04:54:31;;;;;;;1999.90;999.90;;;14.70;99.90;;;;;;5054263;28;20443;-80
2023/05/08 04:56:57;;;;;;;1999.90;999.90;;;14.70;99.90;;;;;;5054426;28;20056;-73
2023/05/08 04:59:23;;;;;;;1999.90;999.90;;;14.60;99.90;;;;;;5054432;28;20024;-73
2023/05/08 05:01:49;;;;;;;1999.90;999.90;;;14.60;99.90;;;;;;5054348;28;20028;-73
2023/05/08 05:04:15;;;;;;;1999.90;999.90;;;14.60;99.90;;;;;;5053206;28;20044;-80
2023/05/08 05:06:41;;;;;;;1999.90;999.90;;;14.70;99.90;;;;;;5053786;28;20032;-80
2023/05/08 05:09:06;;;;;;;1999.90;999.90;;;14.70;99.90;;;;;;5053753;28;20029;-73
2023/05/08 05:11:32;;;;;;;1999.90;999.90;;;14.70;99.90;;;;;;5053439;28;20025;-73
2023/05/08 05:13:58;;;;;;;1999.90;999.90;;;14.60;99.90;;;;;;5051684;28;20031;-73
2023/05/08 05:16:23;;;;;;;1999.90;999.90;;;14.60;99.90;;;;;;5034148;28;20029;-79
2023/05/08 05:18:49;;;;;;;1999.90;999.90;;;14.70;99.90;;;;;;5033545;28;20021;-73
2023/05/08 05:21:15;;;;;;;1999.90;999.90;;;14.60;99.90;;;;;;5033659;28;20022;-80
2023/05/08 05:23:41;;;;;;;1999.90;999.90;;;14.60;99.90;;;;;;5033735;28;20034;-73
2023/05/08 05:26:07;;;;;;;1999.90;999.90;;;14.60;99.90;;;;;;5033902;28;20117;-73
2023/05/08 05:28:32;;;;;;;1999.90;999.90;;;14.70;99.90;;;;;;5033807;28;20443;-79
2023/05/08 05:30:58;;;;;;;1999.90;999.90;;;14.60;99.90;;;;;;5033515;28;20388;-79
2023/05/08 05:33:23;;;;;;;1999.90;999.90;;;14.70;99.90;;;;;;5033868;28;20032;-80
2023/05/08 05:35:49;;;;;;;1999.90;999.90;;;14.70;99.90;;;;;;5033515;28;20079;-80
2023/05/08 05:38:15;;;;;;;1999.90;999.90;;;14.70;99.90;;;;;;5033419;28;20070;-74
2023/05/08 05:40:40;;;;;;;1999.90;999.90;;;14.70;99.90;;;;;;5033747;28;20025;-73
2023/05/08 05:43:06;;;;;;;1999.90;999.90;;;14.70;99.90;;;;;;5033056;28;20134;-73
2023/05/08 05:45:31;;;;;;;1999.90;999.90;;;14.70;99.90;;;;;;5046554;28;20032;-79
2023/05/08 05:47:57;;;;;;;1999.90;999.90;;;14.70;99.90;;;;;;5053201;28;20035;-73
2023/05/08 05:50:22;;;;;;;1999.90;999.90;;;14.70;99.90;;;;;;5053006;28;20017;-73
2023/05/08 05:52:48;;;;;;;1999.90;999.90;;;14.70;99.90;;;;;;5053065;28;20068;-73
2023/05/08 05:55:14;;;;;;;1999.90;999.90;;;14.80;99.90;;;;;;5053190;28;20044;-80
2023/05/08 05:57:39;;;;;;;1999.90;999.90;;;14.80;99.90;;;;;;5053171;28;20021;-73
2023/05/08 06:00:06;;;;;;;1999.90;999.90;;;14.80;99.90;;;;;;5053174;28;20025;-80
2023/05/08 06:02:34;;;;;;;1999.90;999.90;;;14.80;99.90;;;;;;5052980;28;20365;-73
2023/05/08 06:05:00;;;;;;;1999.90;999.90;;;14.80;99.90;;;;;;5052127;28;20561;-79
2023/05/08 06:07:26;;;;;;;1999.90;999.90;;;14.70;99.90;;;;;;5052987;28;20029;-79
2023/05/08 06:09:52;;;;;;;1999.90;999.90;;;14.70;99.90;;;;;;5052672;28;20017;-79
2023/05/08 06:12:18;;;;;;;1999.90;999.90;;;14.70;99.90;;;;;;5053145;28;20028;-73
2023/05/08 06:14:43;;;;;;;1999.90;999.90;;;14.80;99.90;;;;;;5044502;28;20029;-73
2023/05/08 06:17:09;;;;;;;1999.90;999.90;;;14.80;99.90;;;;;;5033173;28;20444;-73
2023/05/08 06:19:35;;;;;;;1999.90;999.90;;;14.80;99.90;;;;;;5032157;28;20052;-73
2023/05/08 06:22:01;;;;;;;1999.90;999.90;;;14.90;99.90;;;;;;5032338;28;20029;-73
2023/05/08 06:24:27;;;;;;;1999.90;999.90;;;14.90;99.90;;;;;;5032135;28;20022;-79
2023/05/08 06:26:53;;;;;;;1999.90;999.90;;;14.90;99.90;;;;;;5033003;28;20029;-73
2023/05/08 06:29:19;;;;;;;1999.90;999.90;;;14.90;99.90;;;;;;5032840;28;20029;-73
2023/05/08 06:31:44;;;;;;;1999.90;999.90;;;14.90;99.90;;;;;;5032872;28;20392;-73
2023/05/08 06:34:10;;;;;;;1999.90;999.90;;;15.00;99.90;;;;;;5032799;28;20397;-80
2023/05/08 06:36:36;;;;;;;1999.90;999.90;;;14.90;99.90;;;;;;5032796;28;20071;-79
2023/05/08 06:39:05;;;;;;;1999.90;999.90;;;14.90;99.90;;;;;;5032375;28;20109;-79
2023/05/08 06:41:30;;;;;;;1999.90;999.90;;;14.80;99.90;;;;;;5032740;28;20484;-73
2023/05/08 06:43:56;;;;;;;1999.90;999.90;;;14.80;99.90;;;;;;5032600;28;20024;-73
2023/05/08 06:46:22;;;;;;;1999.90;999.90;;;14.80;99.90;;;;;;5032792;28;20409;-80
2023/05/08 06:48:47;;;;;;;1999.90;999.90;;;14.80;99.90;;;;;;5048745;28;20032;-79
2023/05/08 06:51:13;;;;;;;1999.90;999.90;;;14.80;99.90;;;;;;5052296;28;20029;-72
2023/05/08 06:53:39;;;;;;;1999.90;999.90;;;14.90;99.90;;;;;;5052336;28;20052;-80
2023/05/08 06:56:05;;;;;;;1999.90;999.90;;;14.90;99.90;;;;;;5052371;28;20052;-73
2023/05/08 06:58:31;;;;;;;1999.90;999.90;;;14.80;99.90;;;;;;5052271;28;20021;-73
2023/05/08 07:01:00;;;;;;;1999.90;999.90;;;14.80;99.90;;;;;;5052356;28;20044;-80
2023/05/08 07:03:26;;;;;;;1999.90;999.90;;;14.90;99.90;;;;;;5052336;28;20029;-73
2023/05/08 07:05:52;;;;;;;1999.90;999.90;;;14.90;99.90;;;;;;5051468;28;20032;-79
2023/05/08 07:08:18;;;;;;;1999.90;999.90;;;14.90;99.90;;;;;;5052258;28;20029;-73
2023/05/08 07:10:43;;;;;;;1999.90;999.90;;;14.90;99.90;;;;;;5051966;28;20108;-73
2023/05/08 07:13:09;;;;;;;1999.90;999.90;;;14.90;99.90;;;;;;5052362;28;20175;-73
2023/05/08 07:15:35;;;;;;;1999.90;999.90;;;15.10;99.90;;;;;;5052313;28;20033;-73
2023/05/08 07:18:00;;;;;;;1999.90;999.90;;;15.00;99.90;;;;;;5051993;28;20409;-80
2023/05/08 07:20:26;;;;;;;1999.90;999.90;;;15.10;99.90;;;;;;5051263;28;20025;-79
2023/05/08 07:22:52;;;;;;;1999.90;999.90;;;15.10;99.90;;;;;;5051822;28;20017;-73
2023/05/08 07:25:18;;;;;;;1999.90;999.90;;;15.10;99.90;;;;;;5052342;28;20063;-80
2023/05/08 07:27:43;;;;;;;1999.90;999.90;;;15.10;99.90;;;;;;5052112;28;20039;-79
2023/05/08 07:30:09;;;;;;;1999.90;999.90;;;15.10;99.90;;;;;;5052296;28;20064;-80
2023/05/08 07:32:35;;;;;;;1999.90;999.90;;;15.00;99.90;;;;;;5051650;28;20048;-73
2023/05/08 07:35:02;;;;;;;1999.90;999.90;;;15.10;99.90;;;;;;5053950;28;20480;-73
2023/05/08 07:37:28;;;;;;;1999.90;999.90;;;15.10;99.90;;;;;;5055864;28;20024;-73
2023/05/08 07:39:54;;;;;;;1999.90;999.90;;;15.10;99.90;;;;;;5055977;28;20112;-79
2023/05/08 07:42:20;;;;;;;1999.90;999.90;;;15.10;99.90;;;;;;5044112;28;20080;-73
2023/05/08 07:44:46;;;;;;;1999.90;999.90;;;15.10;99.90;;;;;;5042420;28;20029;-79
2023/05/08 07:47:11;;;;;;;1999.90;999.90;;;15.20;99.90;;;;;;5055415;28;20073;-73
2023/05/08 07:49:37;;;;;;;1999.90;999.90;;;15.10;99.90;;;;;;5055003;28;20476;-73
2023/05/08 07:52:03;;;;;;;1999.90;999.90;;;15.20;99.90;;;;;;5055194;28;20017;-73
2023/05/08 07:54:28;;;;;;;1999.90;999.90;;;15.20;99.90;;;;;;5055534;28;20036;-80
2023/05/08 07:56:54;;;;;;;1999.90;999.90;;;15.30;99.90;;;;;;5055362;28;20099;-74
2023/05/08 07:59:19;;;;;;;1999.90;999.90;;;15.30;99.90;;;;;;5055219;28;20126;-73
2023/05/08 08:01:46;;;;;;;1999.90;999.90;;;15.30;99.90;;;;;;5055204;28;20104;-73
2023/05/08 08:04:15;;;;;;;1999.90;999.90;;;15.30;99.90;;;;;;5055167;28;20029;-80
2023/05/08 08:06:41;;;;;;;1999.90;999.90;;;15.40;99.90;;;;;;5054345;28;20083;-80
2023/05/08 08:09:06;;;;;;;1999.90;999.90;;;15.50;99.90;;;;;;5055054;28;20033;-73
2023/05/08 08:11:32;;;;;;;1999.90;999.90;;;15.50;99.90;;;;;;5055136;28;20031;-73
2023/05/08 08:13:58;;;;;;;1999.90;999.90;;;15.40;99.90;;;;;;5052849;28;20028;-74
2023/05/08 08:16:23;;;;;;;1999.90;999.90;;;15.20;99.90;;;;;;5035050;28;20029;-74
2023/05/08 08:18:51;;;;;;;1999.90;999.90;;;15.30;99.90;;;;;;5035107;28;20022;-80
2023/05/08 08:21:17;;;;;;;1999.90;999.90;;;15.20;99.90;;;;;;5035135;28;20109;-80
2023/05/08 08:23:43;;;;;;;1999.90;999.90;;;15.30;99.90;;;;;;5035150;28;20053;-80
2023/05/08 08:26:09;;;;;;;1999.90;999.90;;;15.40;99.90;;;;;;5017007;28;20440;-73
2023/05/08 08:28:34;;;;;;;1999.90;999.90;;;15.40;99.90;;;;;;5035123;28;20040;-80
2023/05/08 08:31:00;;;;;;;1999.90;999.90;;;15.40;99.90;;;;;;5034810;28;20037;-80
2023/05/08 08:33:28;;;;;;;1999.90;999.90;;;15.40;99.90;;;;;;5035173;28;20038;-73
2023/05/08 08:35:54;;;;;;;1999.90;999.90;;;15.30;99.90;;;;;;5034820;28;20396;-80
2023/05/08 08:38:20;;;;;;;1999.90;999.90;;;15.30;99.90;;;;;;5034690;28;20029;-80
2023/05/08 08:40:45;;;;;;;1999.90;999.90;;;15.30;99.90;;;;;;5034809;28;20036;-74
2023/05/08 08:43:11;;;;;;;1999.90;999.90;;;15.30;99.90;;;;;;5034196;28;20025;-80
2023/05/08 08:45:37;;;;;;;1999.90;999.90;;;15.50;99.90;;;;;;5047747;28;20025;-73
2023/05/08 08:48:03;;;;;;;1999.90;999.90;;;15.60;99.90;;;;;;5054028;28;20032;-74
2023/05/08 08:50:32;;;;;;;1999.90;999.90;;;15.70;99.90;;;;;;5054188;28;20583;-80
2023/05/08 08:53:17;;;;;;;1999.90;999.90;;;15.90;99.90;;;;;;5054138;28;20052;-74
2023/05/08 08:55:48;;;;;;;1999.90;999.90;;;15.90;99.90;;;;;;5054257;28;20396;-74
2023/05/08 08:58:28;;;;;;;1999.90;999.90;;;16.20;99.90;;;;;;5054454;28;20067;-74
2023/05/08 09:00:55;;;;;;;1999.90;999.90;;;16.30;99.90;;;;;;5054204;28;20039;-80
2023/05/08 09:03:21;;;;;;;1999.90;999.90;;;16.30;99.90;;;;;;5053951;28;20033;-81
2023/05/08 09:05:48;;;;;;;1999.90;999.90;;;16.60;99.90;;;;;;5054027;28;20024;-74
2023/05/08 09:08:14;;;;;;;1999.90;999.90;;;16.50;99.90;;;;;;5053389;28;20028;-73
2023/05/08 09:10:40;;;;;;;1999.90;999.90;;;16.50;99.90;;;;;;5054034;28;20029;-80
2023/05/08 09:13:06;;;;;;;1999.90;999.90;;;16.50;99.90;;;;;;5053854;28;20033;-74
2023/05/08 09:15:32;;;;;;;1999.90;999.90;;;16.60;99.90;;;;;;5038901;28;20022;-73
2023/05/08 09:17:59;;;;;;;1999.90;999.90;;;16.50;99.90;;;;;;5034151;28;20037;-74
2023/05/08 09:20:25;;;;;;;1999.90;999.90;;;16.40;99.90;;;;;;5034186;28;20492;-74
2023/05/08 09:22:53;;;;;;;1999.90;999.90;;;16.30;99.90;;;;;;5033808;28;20034;-74
2023/05/08 09:25:18;;;;;;;1999.90;999.90;;;16.20;99.90;;;;;;5033847;28;20040;-80
2023/05/08 09:27:44;;;;;;;1999.90;999.90;;;16.10;99.90;;;;;;5033622;28;20492;-80
2023/05/08 09:30:11;;;;;;;1999.90;999.90;;;16.10;99.90;;;;;;5033853;28;20536;-74
2023/05/08 09:32:39;;;;;;;1999.90;999.90;;;16.20;99.90;;;;;;5033822;28;20082;-74
2023/05/08 09:35:06;;;;;;;1999.90;999.90;;;16.20;99.90;;;;;;5033864;28;20030;-74
2023/05/08 09:37:32;;;;;;;1999.90;999.90;;;16.40;99.90;;;;;;5033339;28;20021;-73
2023/05/08 09:40:18;;;;;;;1999.90;999.90;;;16.40;99.90;;;;;;5033388;28;20021;-80
2023/05/08 09:42:45;;;;;;;1999.90;999.90;;;16.40;99.90;;;;;;5033371;28;20175;-74
2023/05/08 09:45:24;;;;;;;1999.90;999.90;;;16.40;99.90;;;;;;5043882;28;20522;-81
2023/05/08 09:47:50;;;;;;;1999.90;999.90;;;16.50;99.90;;;;;;5053457;28;20021;-80
2023/05/08 09:50:15;;;;;;;1999.90;999.90;;;16.70;99.90;;;;;;5053075;28;20016;-80
2023/05/08 09:52:46;;;;;;;1999.90;999.90;;;17.00;99.90;;;;;;5052998;28;20444;-74
2023/05/08 09:55:11;;;;;;;1999.90;999.90;;;17.10;99.90;;;;;;5053075;28;20468;-74
2023/05/08 09:57:39;;;;;;;1999.90;999.90;;;17.20;99.90;;;;;;5053252;28;20074;-74
2023/05/08 10:00:12;;;;;;;1999.90;999.90;;;17.00;99.90;;;;;;5053354;28;20439;-74
2023/05/08 10:02:40;;;;;;;1999.90;999.90;;;17.00;99.90;;;;;;5035118;28;20033;-74
2023/05/08 10:05:41;;;;;;;1999.90;999.90;;;17.00;99.90;;;;;;5052896;28;20508;-74
2023/05/08 10:08:21;;;;;;;1999.90;999.90;;;16.80;99.90;;;;;;4971016;28;20037;-80
2023/05/08 10:10:46;;;;;;;1999.90;999.90;;;16.90;99.90;;;;;;4971979;28;20045;-74
2023/05/08 10:13:12;;;;;;;1999.90;999.90;;;16.80;99.90;;;;;;4972149;28;20098;-81
2023/05/08 10:15:41;;;;;;;1999.90;999.90;;;16.80;99.90;;;;;;4956627;28;20039;-81
2023/05/08 10:18:08;;;;;;;1999.90;999.90;;;16.50;99.90;;;;;;4952813;29;20063;-73
2023/05/08 10:20:37;;;;;;;1999.90;999.90;;;16.40;99.90;;;;;;4951826;29;20023;-74
2023/05/08 10:23:10;;;;;;;1999.90;999.90;;;16.60;99.90;;;;;;4952691;29;20519;-81
2023/05/08 10:25:40;;;;;;;1999.90;999.90;;;16.50;99.90;;;;;;4952756;29;20083;-80
2023/05/08 10:28:22;;;;;;;1999.90;999.90;;;16.60;99.90;;;;;;4952540;29;20050;-74
2023/05/08 10:30:49;;;;;;;1999.90;999.90;;;16.40;99.90;;;;;;4952495;29;20110;-80
2023/05/08 10:33:19;;;;;;;1999.90;999.90;;;16.50;99.90;;;;;;4966900;28;20035;-74
2023/05/08 10:35:45;;;;;;;1999.90;999.90;;;16.70;99.90;;;;;;4971757;28;20065;-74
2023/05/08 10:38:11;;;;;;;1999.90;999.90;;;16.90;99.90;;;;;;4971759;28;20031;-80
2023/05/08 10:40:39;;;;;;;1999.90;999.90;;;17.00;99.90;;;;;;4971741;28;20097;-80
2023/05/08 10:43:06;;;;;;;1999.90;999.90;;;17.00;99.90;;;;;;5027887;28;20425;-80
2023/05/08 10:45:32;;;;;;;1999.90;999.90;;;16.90;99.90;;;;;;5045846;28;20047;-80
2023/05/08 10:48:02;;;;;;;1999.90;999.90;;;17.10;99.90;;;;;;5052551;28;20099;-73
2023/05/08 10:50:49;;;;;;;1999.90;999.90;;;17.20;99.90;;;;;;5052317;28;20035;-74
2023/05/08 10:53:21;;;;;;;1999.90;999.90;;;17.00;99.90;;;;;;5052230;28;20041;-80
2023/05/08 10:55:50;;;;;;;1999.90;999.90;;;17.30;99.90;;;;;;5052488;28;20028;-80
2023/05/08 10:58:22;;;;;;;1999.90;999.90;;;17.10;99.90;;;;;;5052685;28;20086;-80
2023/05/08 11:00:50;;;;;;;1999.90;999.90;;;17.20;99.90;;;;;;5052308;28;20025;-80
2023/05/08 11:03:17;;;;;;;1999.90;999.90;;;17.50;99.90;;;;;;5052118;28;20028;-74
2023/05/08 11:05:47;;;;;;;1999.90;999.90;;;17.60;99.90;;;;;;5052329;28;20119;-74
2023/05/08 11:08:16;;;;;;;1999.90;999.90;;;17.70;99.90;;;;;;5052066;28;20056;-81
2023/05/08 11:10:47;;;;;;;1999.90;999.90;;;18.00;99.90;;;;;;5055009;28;20541;-81
2023/05/08 11:13:14;;;;;;;1999.90;999.90;;;18.20;99.90;;;;;;5056451;28;20025;-81
2023/05/08 11:15:41;;;;;;;1999.90;999.90;;;18.00;99.90;;;;;;5040119;28;20025;-74
2023/05/08 11:18:10;;;;;;;1999.90;999.90;;;17.90;99.90;;;;;;5036139;28;20026;-74
2023/05/08 11:20:56;;;;;;;1999.90;999.90;;;18.20;99.90;;;;;;5036323;28;20096;-80
2023/05/08 11:23:24;;;;;;;1999.90;999.90;;;18.60;99.90;;;;;;5035790;28;20087;-80
2023/05/08 11:26:10;;;;;;;1999.90;999.90;;;19.30;99.90;;;;;;5036267;28;20113;-74
2023/05/08 11:29:00;;;;;;;1999.90;999.90;;;19.00;99.90;;;;;;5028701;28;20030;-74
2023/05/08 11:31:49;;;;;;;1999.90;999.90;;;19.00;99.90;;;;;;5035577;28;20041;-74
2023/05/08 11:34:43;;;;;;;1999.90;999.90;;;19.70;99.90;;;;;;5035849;28;20511;-83
2023/05/08 11:37:16;;;;;;;1999.90;999.90;;;19.20;99.90;;;;;;5035955;28;20032;-73
2023/05/08 11:39:42;;;;;;;1999.90;999.90;;;19.30;99.90;;;;;;5035999;28;20021;-81
2023/05/08 11:42:26;;;;;;;1999.90;999.90;;;19.40;99.90;;;;;;5045380;28;20134;-74
2023/05/08 11:45:05;;;;;;;1999.90;999.90;;;18.90;99.90;;;;;;5055426;28;20021;-81
2023/05/08 11:47:40;;;;;;;1999.90;999.90;;;18.80;99.90;;;;;;5055716;28;20021;-80
2023/05/08 11:50:08;;;;;;;1999.90;999.90;;;19.10;99.90;;;;;;5055500;28;20076;-81
2023/05/08 11:52:35;;;;;;;1999.90;999.90;;;19.50;99.90;;;;;;5055203;28;20049;-80
2023/05/08 11:55:04;;;;;;;1999.90;999.90;;;19.10;99.90;;;;;;5055460;28;20063;-74
2023/05/08 11:57:31;;;;;;;1999.90;999.90;;;19.30;99.90;;;;;;5055691;28;20032;-74
2023/05/08 11:59:57;;;;;;;1999.90;999.90;;;19.60;99.90;;;;;;5055549;28;20032;-74
2023/05/08 12:02:41;;;;;;;1999.90;999.90;;;18.90;99.90;;;;;;5055351;28;20443;-81
2023/05/08 12:05:09;;;;;;;1999.90;999.90;;;18.70;99.90;;;;;;5055241;28;20033;-75
2023/05/08 12:07:47;;;;;;;1999.90;999.90;;;18.70;99.90;;;;;;5055176;28;20049;-74
2023/05/08 12:10:13;;;;;;;1999.90;999.90;;;18.60;99.90;;;;;;5054415;28;20487;-74